Air Quality Table

TIMESTAMP NO2 SO2 O3 PM10 PM2.5 CO TEMP HUM AIRPRES WS WD NO BENZENE
2022-10-02 17:00 14.37 µg/m3 0.4 µg/m3 71.78 µg/m3 12.26 µg/m3 4.99 µg/m3 0.15 mg/m3 25.27 °C 54.83 % 1,022.99 mbar 2.61 m/s 292.97 Deg 4.74 µg/m3 0.84 µg/m3
2022-10-02 09:00 11.79 µg/m3 0.33 µg/m3 66.03 µg/m3 7.88 µg/m3 3.08 µg/m3 0.12 mg/m3 23.07 °C 55.52 % 1,023.23 mbar 2.32 m/s 294.97 Deg 2.1 µg/m3 0.59 µg/m3
2022-10-02 01:00 23.98 µg/m3 0.3 µg/m3 54.07 µg/m3 15.07 µg/m3 7.02 µg/m3 0.23 mg/m3 24.58 °C 62 % 1,021.36 mbar 2.69 m/s 274.58 Deg 4.2 µg/m3 1.08 µg/m3
2022-10-01 17:00 22.76 µg/m3 0.31 µg/m3 59.99 µg/m3 23.41 µg/m3 9.84 µg/m3 0.3 mg/m3 27.1 °C 72.68 % 1,017.88 mbar 2.6 m/s 211.49 Deg 10.48 µg/m3 1.2 µg/m3
2022-10-01 09:00 13.84 µg/m3 0.29 µg/m3 57.12 µg/m3 18.68 µg/m3 12.73 µg/m3 0.27 mg/m3 25.69 °C 86.63 % 1,012.94 mbar 2.8 m/s 37.02 Deg 9.8 µg/m3 0.96 µg/m3
2022-10-01 01:00 24.29 µg/m3 0.31 µg/m3 43.26 µg/m3 16.81 µg/m3 11.63 µg/m3 0.27 mg/m3 26.01 °C 84.61 % 1,010.47 mbar 3.3 m/s 101.71 Deg 14.94 µg/m3 1 µg/m3
2022-09-30 17:00 33.29 µg/m3 0.51 µg/m3 47.54 µg/m3 20.67 µg/m3 10.7 µg/m3 0.36 mg/m3 27.1 °C 76.77 % 1,010.76 mbar 3.93 m/s 134.22 Deg 34.03 µg/m3 1.62 µg/m3
2022-09-30 09:00 35.29 µg/m3 0.46 µg/m3 44.51 µg/m3 12.33 µg/m3 6.57 µg/m3 0.31 mg/m3 25.55 °C 74.16 % 1,009.62 mbar 1.64 m/s 148.45 Deg 20.94 µg/m3 2.21 µg/m3
2022-09-30 01:00 34.27 µg/m3 0.39 µg/m3 53.37 µg/m3 14.37 µg/m3 5.76 µg/m3 0.28 mg/m3 25.26 °C 64.44 % 1,009.81 mbar 0.92 m/s 189.57 Deg 8.21 µg/m3 2.06 µg/m3
2022-09-29 17:00 22.72 µg/m3 0.35 µg/m3 69.54 µg/m3 16.31 µg/m3 4.83 µg/m3 0.18 mg/m3 26.98 °C 53.55 % 1,009.61 mbar 2.53 m/s 197.72 Deg 7.99 µg/m3 0.9 µg/m3
2022-09-29 09:00 54.14 µg/m3 0.77 µg/m3 26.22 µg/m3 27.44 µg/m3 9.4 µg/m3 0.41 mg/m3 22.95 °C 68.75 % 1,010.01 mbar 1.15 m/s 227.29 Deg 37.15 µg/m3 3.34 µg/m3
2022-09-29 01:00 34.91 µg/m3 0.31 µg/m3 43.49 µg/m3 17.12 µg/m3 7.45 µg/m3 0.27 mg/m3 23.52 °C 63.62 % 1,010.49 mbar 1.09 m/s 235.58 Deg 2.85 µg/m3 1.51 µg/m3
2022-09-28 17:00 28.59 µg/m3 0.33 µg/m3 65.33 µg/m3 18.47 µg/m3 5.88 µg/m3 0.2 mg/m3 25.9 °C 56.24 % 1,010.11 mbar 3.27 m/s 249.92 Deg 8.33 µg/m3 1.03 µg/m3
2022-09-28 09:00 53.9 µg/m3 0.52 µg/m3 33 µg/m3 21.44 µg/m3 8.18 µg/m3 0.36 mg/m3 23.19 °C 67.55 % 1,010.24 mbar 0.98 m/s 229.02 Deg 22.38 µg/m3 2.69 µg/m3
2022-09-28 01:00 28.44 µg/m3 0.23 µg/m3 55.37 µg/m3 14.2 µg/m3 6.46 µg/m3 0.27 mg/m3 24.19 °C 68.39 % 1,010.47 mbar 1.31 m/s 249.87 Deg 2.5 µg/m3 1.27 µg/m3
2022-09-27 17:00 30.54 µg/m3 0.28 µg/m3 61.77 µg/m3 22.28 µg/m3 8.07 µg/m3 0.26 mg/m3 26.25 °C 66.58 % 1,009.86 mbar 3.06 m/s 252.42 Deg 7.39 µg/m3 1.05 µg/m3
2022-09-27 09:00 42.36 µg/m3 0.34 µg/m3 41.85 µg/m3 23.37 µg/m3 9.64 µg/m3 0.33 mg/m3 25.24 °C 69.89 % 1,009.57 mbar 1.47 m/s 237.56 Deg 12.85 µg/m3 1.56 µg/m3
2022-09-27 01:00 17.81 µg/m3 0.21 µg/m3 64.46 µg/m3 22.15 µg/m3 13.42 µg/m3 0.34 mg/m3 26.53 °C 74.33 % 1,009.75 mbar 1.85 m/s 237.93 Deg 1.4 µg/m3 0.91 µg/m3
2022-09-26 17:00 19.65 µg/m3 0.32 µg/m3 58.66 µg/m3 31.49 µg/m3 12.54 µg/m3 0.34 mg/m3 27.82 °C 67.18 % 1,010.93 mbar 2.94 m/s 185.96 Deg 9.25 µg/m3 1.2 µg/m3
2022-09-26 09:00 23.35 µg/m3 0.27 µg/m3 61.47 µg/m3 17.75 µg/m3 7.19 µg/m3 0.23 mg/m3 25.59 °C 69.2 % 1,013.00 mbar 1.69 m/s 163.15 Deg 6.84 µg/m3 0.99 µg/m3

It is to be noted that the data is provisional and subject to quality assurance procedures. For validated data kindly refer your request to contact.air@era.org.mt